Terminal Aerodrome Forecast
Issued by NWS Detroit/Pontiac, MI

Home | Current Version | Previous Version | Text Only | Print | Product List | Glossary On
Versions: 1 2 3 4 5 6 7 8 9 10 11 12 13 14 15 16 17 18 19 20 21 22 23 24 25 26 27
000
FTUS43 KDTX 310200 AAA
TAFDTW
TAF AMD
KDTW 310217Z 3102/0106 19014KT P6SM SCT035 BKN150
      TEMPO 3106/3108 5SM TSRA BR SCT025CB OVC035
     FM310800 21012KT P6SM BKN035 OVC100
     FM311000 23007KT 4SM BR BKN015 OVC025
     FM311400 23010KT P6SM BKN025
     FM311900 20006KT P6SM BKN040=

USA.gov is the U.S. government's official web portal to all federal, state and local government web resources and services.